sensor_id;sensor_type;location;lat;lon;timestamp;temperature;humidity
12233;DHT22;6179;51.748;8.728;2023-04-16T00:03:03;10.00;98.30
12233;DHT22;6179;51.748;8.728;2023-04-16T00:09:03;9.90;98.30
12233;DHT22;6179;51.748;8.728;2023-04-16T00:15:04;10.20;98.30
12233;DHT22;6179;51.748;8.728;2023-04-16T00:21:06;9.80;98.30
12233;DHT22;6179;51.748;8.728;2023-04-16T00:27:07;10.10;98.30
12233;DHT22;6179;51.748;8.728;2023-04-16T00:33:08;10.00;98.30
12233;DHT22;6179;51.748;8.728;2023-04-16T00:39:08;9.90;98.30
12233;DHT22;6179;51.748;8.728;2023-04-16T00:45:10;10.30;98.30
12233;DHT22;6179;51.748;8.728;2023-04-16T00:51:11;10.20;98.30
12233;DHT22;6179;51.748;8.728;2023-04-16T00:57:13;10.40;98.30
12233;DHT22;6179;51.748;8.728;2023-04-16T01:03:14;10.10;98.30
12233;DHT22;6179;51.748;8.728;2023-04-16T01:09:15;9.90;98.30
12233;DHT22;6179;51.748;8.728;2023-04-16T01:15:16;10.10;98.30
12233;DHT22;6179;51.748;8.728;2023-04-16T01:21:17;10.10;98.30
12233;DHT22;6179;51.748;8.728;2023-04-16T01:27:18;9.90;98.30
12233;DHT22;6179;51.748;8.728;2023-04-16T01:33:20;10.00;98.30
12233;DHT22;6179;51.748;8.728;2023-04-16T01:39:21;9.70;98.30
12233;DHT22;6179;51.748;8.728;2023-04-16T01:45:22;9.70;98.30
12233;DHT22;6179;51.748;8.728;2023-04-16T01:51:22;9.70;98.30
12233;DHT22;6179;51.748;8.728;2023-04-16T01:57:23;9.80;98.30
12233;DHT22;6179;51.748;8.728;2023-04-16T02:03:24;10.00;98.30
12233;DHT22;6179;51.748;8.728;2023-04-16T02:09:25;9.40;98.30
12233;DHT22;6179;51.748;8.728;2023-04-16T02:15:26;9.70;98.30
12233;DHT22;6179;51.748;8.728;2023-04-16T02:21:26;9.70;98.30
12233;DHT22;6179;51.748;8.728;2023-04-16T02:27:27;9.50;98.30
12233;DHT22;6179;51.748;8.728;2023-04-16T02:33:28;9.80;98.30
12233;DHT22;6179;51.748;8.728;2023-04-16T02:39:31;9.80;98.30
12233;DHT22;6179;51.748;8.728;2023-04-16T02:45:32;9.90;98.30
12233;DHT22;6179;51.748;8.728;2023-04-16T02:51:32;10.10;98.30
12233;DHT22;6179;51.748;8.728;2023-04-16T02:57:33;9.90;98.30
12233;DHT22;6179;51.748;8.728;2023-04-16T03:03:34;9.70;98.30
12233;DHT22;6179;51.748;8.728;2023-04-16T03:09:35;9.60;98.30
12233;DHT22;6179;51.748;8.728;2023-04-16T03:15:36;9.60;98.30
12233;DHT22;6179;51.748;8.728;2023-04-16T03:21:37;9.70;98.30
12233;DHT22;6179;51.748;8.728;2023-04-16T03:27:38;9.50;98.30
12233;DHT22;6179;51.748;8.728;2023-04-16T03:33:41;9.50;98.30
12233;DHT22;6179;51.748;8.728;2023-04-16T03:39:42;9.50;98.30
12233;DHT22;6179;51.748;8.728;2023-04-16T03:45:44;9.90;98.30
12233;DHT22;6179;51.748;8.728;2023-04-16T03:51:46;9.70;98.30
12233;DHT22;6179;51.748;8.728;2023-04-16T03:57:46;9.50;98.30
12233;DHT22;6179;51.748;8.728;2023-04-16T04:03:47;9.70;98.30
12233;DHT22;6179;51.748;8.728;2023-04-16T04:09:48;9.80;98.30
12233;DHT22;6179;51.748;8.728;2023-04-16T04:15:51;9.40;98.30
12233;DHT22;6179;51.748;8.728;2023-04-16T04:21:52;9.10;98.30
12233;DHT22;6179;51.748;8.728;2023-04-16T04:27:53;9.80;98.30
12233;DHT22;6179;51.748;8.728;2023-04-16T04:33:53;9.60;98.30
12233;DHT22;6179;51.748;8.728;2023-04-16T04:39:54;9.90;98.30
12233;DHT22;6179;51.748;8.728;2023-04-16T04:45:55;9.30;98.30
12233;DHT22;6179;51.748;8.728;2023-04-16T04:51:56;9.40;98.30
12233;DHT22;6179;51.748;8.728;2023-04-16T04:57:57;9.40;98.30
12233;DHT22;6179;51.748;8.728;2023-04-16T05:03:58;9.40;98.30
12233;DHT22;6179;51.748;8.728;2023-04-16T05:09:58;9.50;98.30
12233;DHT22;6179;51.748;8.728;2023-04-16T05:15:59;9.40;98.30
12233;DHT22;6179;51.748;8.728;2023-04-16T05:22:00;9.50;98.30
12233;DHT22;6179;51.748;8.728;2023-04-16T05:28:02;9.50;98.30
12233;DHT22;6179;51.748;8.728;2023-04-16T05:34:02;9.30;98.30
12233;DHT22;6179;51.748;8.728;2023-04-16T05:40:03;9.70;98.30
12233;DHT22;6179;51.748;8.728;2023-04-16T05:46:04;9.40;98.30
12233;DHT22;6179;51.748;8.728;2023-04-16T05:52:05;9.60;98.30
12233;DHT22;6179;51.748;8.728;2023-04-16T05:58:06;9.20;98.30
12233;DHT22;6179;51.748;8.728;2023-04-16T06:04:07;9.20;98.30
12233;DHT22;6179;51.748;8.728;2023-04-16T06:10:08;9.10;98.30
12233;DHT22;6179;51.748;8.728;2023-04-16T06:16:09;9.30;98.30
12233;DHT22;6179;51.748;8.728;2023-04-16T06:22:10;9.20;98.30
12233;DHT22;6179;51.748;8.728;2023-04-16T06:28:11;9.10;98.30
12233;DHT22;6179;51.748;8.728;2023-04-16T06:34:12;9.30;98.30
12233;DHT22;6179;51.748;8.728;2023-04-16T06:40:12;9.40;98.30
12233;DHT22;6179;51.748;8.728;2023-04-16T06:46:13;9.00;98.30
12233;DHT22;6179;51.748;8.728;2023-04-16T06:52:14;9.10;98.30
12233;DHT22;6179;51.748;8.728;2023-04-16T06:58:15;9.20;98.30
12233;DHT22;6179;51.748;8.728;2023-04-16T07:04:16;8.90;98.30
12233;DHT22;6179;51.748;8.728;2023-04-16T07:10:16;8.90;98.30
12233;DHT22;6179;51.748;8.728;2023-04-16T07:16:17;9.10;98.30
12233;DHT22;6179;51.748;8.728;2023-04-16T07:22:19;9.20;98.30
12233;DHT22;6179;51.748;8.728;2023-04-16T07:28:20;9.30;98.30
12233;DHT22;6179;51.748;8.728;2023-04-16T07:34:20;9.30;98.30
12233;DHT22;6179;51.748;8.728;2023-04-16T07:40:22;9.30;98.30
12233;DHT22;6179;51.748;8.728;2023-04-16T07:46:23;9.30;98.30
12233;DHT22;6179;51.748;8.728;2023-04-16T07:52:24;9.60;98.30
12233;DHT22;6179;51.748;8.728;2023-04-16T07:58:26;9.70;98.30
12233;DHT22;6179;51.748;8.728;2023-04-16T08:04:27;9.80;98.30
12233;DHT22;6179;51.748;8.728;2023-04-16T08:10:27;10.40;98.30
12233;DHT22;6179;51.748;8.728;2023-04-16T08:16:28;10.40;98.30
12233;DHT22;6179;51.748;8.728;2023-04-16T08:22:29;10.40;98.30
12233;DHT22;6179;51.748;8.728;2023-04-16T08:28:30;10.20;98.30
12233;DHT22;6179;51.748;8.728;2023-04-16T08:34:31;10.30;98.30
12233;DHT22;6179;51.748;8.728;2023-04-16T08:40:34;10.60;98.00
12233;DHT22;6179;51.748;8.728;2023-04-16T08:46:40;10.40;98.30
12233;DHT22;6179;51.748;8.728;2023-04-16T08:52:57;10.30;98.30
12233;DHT22;6179;51.748;8.728;2023-04-16T08:58:59;10.50;98.30
12233;DHT22;6179;51.748;8.728;2023-04-16T09:05:06;10.50;98.30
12233;DHT22;6179;51.748;8.728;2023-04-16T09:11:08;10.70;98.30
12233;DHT22;6179;51.748;8.728;2023-04-16T09:17:11;10.80;98.30
12233;DHT22;6179;51.748;8.728;2023-04-16T09:23:13;10.40;98.30
12233;DHT22;6179;51.748;8.728;2023-04-16T09:29:36;11.10;98.30
12233;DHT22;6179;51.748;8.728;2023-04-16T09:35:52;11.10;98.30
12233;DHT22;6179;51.748;8.728;2023-04-16T09:41:53;11.30;98.00
12233;DHT22;6179;51.748;8.728;2023-04-16T09:48:02;11.30;98.10
12233;DHT22;6179;51.748;8.728;2023-04-16T09:54:05;11.10;98.30
12233;DHT22;6179;51.748;8.728;2023-04-16T10:00:08;11.50;97.70
12233;DHT22;6179;51.748;8.728;2023-04-16T10:06:17;11.30;97.90
12233;DHT22;6179;51.748;8.728;2023-04-16T10:12:19;11.40;97.90
12233;DHT22;6179;51.748;8.728;2023-04-16T10:18:21;11.60;97.60
12233;DHT22;6179;51.748;8.728;2023-04-16T10:24:23;11.70;97.60
12233;DHT22;6179;51.748;8.728;2023-04-16T10:30:25;11.60;97.50
12233;DHT22;6179;51.748;8.728;2023-04-16T10:36:26;11.60;97.60
12233;DHT22;6179;51.748;8.728;2023-04-16T10:42:27;11.40;98.30
12233;DHT22;6179;51.748;8.728;2023-04-16T10:48:29;11.70;98.10
12233;DHT22;6179;51.748;8.728;2023-04-16T10:54:31;11.20;98.30
12233;DHT22;6179;51.748;8.728;2023-04-16T11:00:48;11.60;98.30
12233;DHT22;6179;51.748;8.728;2023-04-16T11:13:18;12.10;96.70
12233;DHT22;6179;51.748;8.728;2023-04-16T11:19:19;12.00;96.60
12233;DHT22;6179;51.748;8.728;2023-04-16T11:25:25;11.90;97.50
12233;DHT22;6179;51.748;8.728;2023-04-16T11:31:30;12.00;96.20
12233;DHT22;6179;51.748;8.728;2023-04-16T11:37:34;11.90;98.00
12233;DHT22;6179;51.748;8.728;2023-04-16T11:43:36;12.00;97.60
12233;DHT22;6179;51.748;8.728;2023-04-16T11:49:37;11.50;98.30
12233;DHT22;6179;51.748;8.728;2023-04-16T11:55:47;11.60;98.30
12233;DHT22;6179;51.748;8.728;2023-04-16T12:01:52;11.80;98.00
12233;DHT22;6179;51.748;8.728;2023-04-16T12:08:01;11.80;96.70
12233;DHT22;6179;51.748;8.728;2023-04-16T12:14:06;11.50;97.50
12233;DHT22;6179;51.748;8.728;2023-04-16T12:20:13;11.50;98.00
12233;DHT22;6179;51.748;8.728;2023-04-16T12:26:15;11.80;96.60
12233;DHT22;6179;51.748;8.728;2023-04-16T12:32:20;11.70;96.00
12233;DHT22;6179;51.748;8.728;2023-04-16T12:38:22;11.60;97.60
12233;DHT22;6179;51.748;8.728;2023-04-16T12:44:25;11.90;96.50
12233;DHT22;6179;51.748;8.728;2023-04-16T12:50:27;11.80;96.50
12233;DHT22;6179;51.748;8.728;2023-04-16T13:02:29;12.10;95.40
12233;DHT22;6179;51.748;8.728;2023-04-16T13:08:31;11.80;96.30
12233;DHT22;6179;51.748;8.728;2023-04-16T13:14:32;11.70;96.60
12233;DHT22;6179;51.748;8.728;2023-04-16T13:20:33;11.80;95.70
12233;DHT22;6179;51.748;8.728;2023-04-16T13:26:33;12.00;95.30
12233;DHT22;6179;51.748;8.728;2023-04-16T13:32:35;12.30;95.40
12233;DHT22;6179;51.748;8.728;2023-04-16T13:38:35;12.30;94.00
12233;DHT22;6179;51.748;8.728;2023-04-16T13:44:36;12.10;95.00
12233;DHT22;6179;51.748;8.728;2023-04-16T13:50:37;11.60;96.40
12233;DHT22;6179;51.748;8.728;2023-04-16T13:56:38;11.90;97.60
12233;DHT22;6179;51.748;8.728;2023-04-16T14:02:41;12.10;95.80
12233;DHT22;6179;51.748;8.728;2023-04-16T14:08:42;12.60;93.20
12233;DHT22;6179;51.748;8.728;2023-04-16T14:14:43;12.10;94.60
12233;DHT22;6179;51.748;8.728;2023-04-16T14:20:45;12.20;95.30
12233;DHT22;6179;51.748;8.728;2023-04-16T14:26:46;12.10;95.70
12233;DHT22;6179;51.748;8.728;2023-04-16T14:32:47;11.80;94.90
12233;DHT22;6179;51.748;8.728;2023-04-16T14:38:48;11.80;96.10
12233;DHT22;6179;51.748;8.728;2023-04-16T14:44:49;11.70;97.40
12233;DHT22;6179;51.748;8.728;2023-04-16T14:50:50;11.70;96.20
12233;DHT22;6179;51.748;8.728;2023-04-16T14:56:51;11.80;95.40
12233;DHT22;6179;51.748;8.728;2023-04-16T15:02:53;11.50;96.70
12233;DHT22;6179;51.748;8.728;2023-04-16T15:08:54;11.50;97.10
12233;DHT22;6179;51.748;8.728;2023-04-16T15:14:55;11.90;95.90
12233;DHT22;6179;51.748;8.728;2023-04-16T15:20:56;11.60;97.20
12233;DHT22;6179;51.748;8.728;2023-04-16T15:26:57;11.80;96.30
12233;DHT22;6179;51.748;8.728;2023-04-16T15:32:57;11.40;98.30
12233;DHT22;6179;51.748;8.728;2023-04-16T15:38:58;11.50;98.10
12233;DHT22;6179;51.748;8.728;2023-04-16T15:44:59;11.70;98.30
12233;DHT22;6179;51.748;8.728;2023-04-16T15:51:00;12.00;98.20
12233;DHT22;6179;51.748;8.728;2023-04-16T15:57:01;12.40;97.10
12233;DHT22;6179;51.748;8.728;2023-04-16T16:03:01;12.70;95.50
12233;DHT22;6179;51.748;8.728;2023-04-16T16:09:03;12.50;95.30
12233;DHT22;6179;51.748;8.728;2023-04-16T16:15:05;12.30;96.70
12233;DHT22;6179;51.748;8.728;2023-04-16T16:21:06;11.90;98.00
12233;DHT22;6179;51.748;8.728;2023-04-16T16:27:07;11.90;98.30
12233;DHT22;6179;51.748;8.728;2023-04-16T16:33:08;12.10;98.30
12233;DHT22;6179;51.748;8.728;2023-04-16T16:39:09;11.90;98.30
12233;DHT22;6179;51.748;8.728;2023-04-16T16:45:10;11.90;98.30
12233;DHT22;6179;51.748;8.728;2023-04-16T16:51:11;11.80;98.30
12233;DHT22;6179;51.748;8.728;2023-04-16T16:57:11;11.90;98.30
12233;DHT22;6179;51.748;8.728;2023-04-16T17:03:12;12.00;98.30
12233;DHT22;6179;51.748;8.728;2023-04-16T17:09:13;12.00;98.30
12233;DHT22;6179;51.748;8.728;2023-04-16T17:15:15;11.90;98.30
12233;DHT22;6179;51.748;8.728;2023-04-16T17:21:16;12.20;98.30
12233;DHT22;6179;51.748;8.728;2023-04-16T17:27:16;12.10;98.30
12233;DHT22;6179;51.748;8.728;2023-04-16T17:33:17;12.30;98.30
12233;DHT22;6179;51.748;8.728;2023-04-16T17:39:18;12.20;98.30
12233;DHT22;6179;51.748;8.728;2023-04-16T17:45:20;12.30;98.30
12233;DHT22;6179;51.748;8.728;2023-04-16T17:51:21;12.20;98.30
12233;DHT22;6179;51.748;8.728;2023-04-16T17:57:22;12.30;98.30
12233;DHT22;6179;51.748;8.728;2023-04-16T18:03:23;12.30;98.30
12233;DHT22;6179;51.748;8.728;2023-04-16T18:09:23;12.20;98.30
12233;DHT22;6179;51.748;8.728;2023-04-16T18:15:25;12.20;98.30
12233;DHT22;6179;51.748;8.728;2023-04-16T18:21:26;11.90;98.30
12233;DHT22;6179;51.748;8.728;2023-04-16T18:27:27;11.60;98.30
12233;DHT22;6179;51.748;8.728;2023-04-16T18:33:28;11.50;98.30
12233;DHT22;6179;51.748;8.728;2023-04-16T18:39:31;11.30;98.30
12233;DHT22;6179;51.748;8.728;2023-04-16T18:45:32;11.20;98.30
12233;DHT22;6179;51.748;8.728;2023-04-16T18:51:33;10.80;98.30
12233;DHT22;6179;51.748;8.728;2023-04-16T18:57:34;10.70;98.30
12233;DHT22;6179;51.748;8.728;2023-04-16T19:03:35;10.40;98.30
12233;DHT22;6179;51.748;8.728;2023-04-16T19:09:36;10.90;98.30
12233;DHT22;6179;51.748;8.728;2023-04-16T19:15:37;10.90;98.30
12233;DHT22;6179;51.748;8.728;2023-04-16T19:21:37;11.00;98.30
12233;DHT22;6179;51.748;8.728;2023-04-16T19:27:38;11.10;98.30
12233;DHT22;6179;51.748;8.728;2023-04-16T19:33:39;11.20;98.30
12233;DHT22;6179;51.748;8.728;2023-04-16T19:39:40;11.20;98.30
12233;DHT22;6179;51.748;8.728;2023-04-16T19:45:46;11.30;98.30
12233;DHT22;6179;51.748;8.728;2023-04-16T19:51:47;11.30;98.30
12233;DHT22;6179;51.748;8.728;2023-04-16T19:57:48;11.40;98.30
12233;DHT22;6179;51.748;8.728;2023-04-16T20:03:48;11.30;98.30
12233;DHT22;6179;51.748;8.728;2023-04-16T20:09:49;11.30;98.30
12233;DHT22;6179;51.748;8.728;2023-04-16T20:15:53;11.30;98.30
12233;DHT22;6179;51.748;8.728;2023-04-16T20:21:54;11.30;98.30
12233;DHT22;6179;51.748;8.728;2023-04-16T20:27:55;11.20;98.30
12233;DHT22;6179;51.748;8.728;2023-04-16T20:33:55;11.30;98.30
12233;DHT22;6179;51.748;8.728;2023-04-16T20:39:56;11.30;98.30
12233;DHT22;6179;51.748;8.728;2023-04-16T20:45:57;11.30;98.30
12233;DHT22;6179;51.748;8.728;2023-04-16T20:51:58;11.40;98.30
12233;DHT22;6179;51.748;8.728;2023-04-16T20:57:58;11.30;98.30
12233;DHT22;6179;51.748;8.728;2023-04-16T21:04:00;11.10;98.30
12233;DHT22;6179;51.748;8.728;2023-04-16T21:10:00;10.90;98.30
12233;DHT22;6179;51.748;8.728;2023-04-16T21:16:01;10.90;98.30
12233;DHT22;6179;51.748;8.728;2023-04-16T21:22:04;10.90;98.30
12233;DHT22;6179;51.748;8.728;2023-04-16T21:28:05;11.00;98.30
12233;DHT22;6179;51.748;8.728;2023-04-16T21:34:05;11.00;98.30
12233;DHT22;6179;51.748;8.728;2023-04-16T21:40:06;10.90;98.30
12233;DHT22;6179;51.748;8.728;2023-04-16T21:46:08;10.90;98.30
12233;DHT22;6179;51.748;8.728;2023-04-16T21:52:08;10.70;98.30
12233;DHT22;6179;51.748;8.728;2023-04-16T21:58:17;10.70;98.30
12233;DHT22;6179;51.748;8.728;2023-04-16T22:04:18;10.90;98.30
12233;DHT22;6179;51.748;8.728;2023-04-16T22:10:25;11.00;98.30
12233;DHT22;6179;51.748;8.728;2023-04-16T22:16:26;10.90;98.30
12233;DHT22;6179;51.748;8.728;2023-04-16T22:22:27;10.90;98.30
12233;DHT22;6179;51.748;8.728;2023-04-16T22:28:28;11.00;98.30
12233;DHT22;6179;51.748;8.728;2023-04-16T22:34:29;10.80;98.30
12233;DHT22;6179;51.748;8.728;2023-04-16T22:40:30;10.60;98.30
12233;DHT22;6179;51.748;8.728;2023-04-16T22:46:31;10.60;98.30
12233;DHT22;6179;51.748;8.728;2023-04-16T22:52:32;10.50;98.30
12233;DHT22;6179;51.748;8.728;2023-04-16T22:58:33;10.40;98.30
12233;DHT22;6179;51.748;8.728;2023-04-16T23:04:33;10.40;98.30
12233;DHT22;6179;51.748;8.728;2023-04-16T23:10:35;10.30;98.30
12233;DHT22;6179;51.748;8.728;2023-04-16T23:16:36;10.50;98.30
12233;DHT22;6179;51.748;8.728;2023-04-16T23:22:37;10.40;98.30
12233;DHT22;6179;51.748;8.728;2023-04-16T23:28:38;10.50;98.30
12233;DHT22;6179;51.748;8.728;2023-04-16T23:34:39;10.30;98.30
12233;DHT22;6179;51.748;8.728;2023-04-16T23:40:41;10.20;98.30
12233;DHT22;6179;51.748;8.728;2023-04-16T23:46:41;10.30;98.30
12233;DHT22;6179;51.748;8.728;2023-04-16T23:52:42;10.30;98.30
12233;DHT22;6179;51.748;8.728;2023-04-16T23:58:43;10.20;98.30
